Terminal Aerodrome Forecast
Issued by NWS Albany, NY

Home | Current Version | Previous Version | Text Only | Print | Product List | Glossary On
Versions: 1 2 3 4 5 6 7 8 9 10 11 12 13 14 15 16 17 18 19 20 21 22 23 24 25
973
FTUS41 KALY 170531
TAFGFL
TAF
KGFL 170531Z 1706/1806 36004KT P6SM SCT250
     FM171000 VRB02KT P6SM MIFG SCT250
     FM171200 VRB03KT P6SM SCT250
     FM171500 19006KT P6SM SCT250
     FM180000 VRB03KT P6SM SCT250=

USA.gov is the U.S. government's official web portal to all federal, state and local government web resources and services.